UAL1229 KLAX-PHLI
Flight info
| Callsign | UAL1229 |
|---|---|
| Flight time | N/A |
| Altitude | 34000 |
| Route | SUMMR2 DINTY DUETS R576 DADIE/N0457F360 R576 DENNS FISHE V8 ALANA V16 NAPUA |
| Aircraft | B38M/M-SDE1FGHILORVWXY/HB1 |
Departure
| Time | 2026-04-25 01:47 |
|---|---|
| Airport | Los Angeles International Airport (KLAX) |
Arrival
| Time | N/A |
|---|---|
| Airport | Lihue Airport (PHLI) |
| Time | Latitude | Longitude | Altitude | Speed | Heading |
|---|---|---|---|---|---|
| 2026-04-25 00:42 | 33.94159 | -118.40027 | 97 ft | 0 kts | 90° |
| 2026-04-25 00:42 | 33.94160 | -118.40032 | 97 ft | 0 kts | 91° |
| 2026-04-25 01:31 | 33.94160 | -118.40055 | 95 ft | 3 kts | 91° |
| 2026-04-25 01:32 | 33.94161 | -118.40074 | 95 ft | 3 kts | 111° |
| 2026-04-25 01:32 | 33.94170 | -118.40087 | 95 ft | 3 kts | 168° |
| 2026-04-25 01:32 | 33.94168 | -118.40087 | 95 ft | 3 kts | 173° |
| 2026-04-25 01:32 | 33.94148 | -118.40084 | 95 ft | 3 kts | 173° |
| 2026-04-25 01:33 | 33.94128 | -118.40081 | 97 ft | 3 kts | 173° |
| 2026-04-25 01:33 | 33.94107 | -118.40078 | 96 ft | 3 kts | 173° |
| 2026-04-25 01:33 | 33.94087 | -118.40075 | 97 ft | 3 kts | 173° |
| 2026-04-25 01:33 | 33.94067 | -118.40072 | 95 ft | 3 kts | 173° |
| 2026-04-25 01:34 | 33.94048 | -118.40069 | 96 ft | 1 kts | 173° |
| 2026-04-25 01:39 | 33.94044 | -118.40068 | 96 ft | 1 kts | 173° |
| 2026-04-25 01:39 | 33.94034 | -118.40067 | 96 ft | 2 kts | 173° |
| 2026-04-25 01:39 | 33.93992 | -118.40060 | 96 ft | 11 kts | 173° |
| 2026-04-25 01:39 | 33.93932 | -118.40052 | 98 ft | 6 kts | 173° |
| 2026-04-25 01:40 | 33.93898 | -118.40030 | 99 ft | 5 kts | 137° |
| 2026-04-25 01:40 | 33.93883 | -118.40004 | 99 ft | 5 kts | 113° |
| 2026-04-25 01:40 | 33.93881 | -118.39966 | 100 ft | 5 kts | 83° |
| 2026-04-25 01:40 | 33.93886 | -118.39911 | 100 ft | 10 kts | 83° |
| 2026-04-25 01:41 | 33.93899 | -118.39784 | 100 ft | 19 kts | 83° |
| 2026-04-25 01:41 | 33.93916 | -118.39621 | 97 ft | 19 kts | 83° |
| 2026-04-25 01:41 | 33.93932 | -118.39455 | 97 ft | 21 kts | 83° |
| 2026-04-25 01:41 | 33.93950 | -118.39292 | 96 ft | 17 kts | 82° |
| 2026-04-25 01:42 | 33.93965 | -118.39150 | 97 ft | 17 kts | 83° |
| 2026-04-25 01:42 | 33.93977 | -118.39024 | 96 ft | 15 kts | 83° |
| 2026-04-25 01:42 | 33.93990 | -118.38895 | 96 ft | 15 kts | 83° |
| 2026-04-25 01:42 | 33.94004 | -118.38766 | 97 ft | 16 kts | 83° |
| 2026-04-25 01:43 | 33.94017 | -118.38637 | 97 ft | 15 kts | 83° |
| 2026-04-25 01:43 | 33.94030 | -118.38511 | 98 ft | 14 kts | 83° |
| 2026-04-25 01:43 | 33.94042 | -118.38390 | 98 ft | 14 kts | 83° |
| 2026-04-25 01:43 | 33.94055 | -118.38267 | 99 ft | 15 kts | 83° |
| 2026-04-25 01:44 | 33.94067 | -118.38149 | 96 ft | 13 kts | 83° |
| 2026-04-25 01:44 | 33.94075 | -118.38069 | 95 ft | 7 kts | 83° |
| 2026-04-25 01:44 | 33.94077 | -118.38034 | 95 ft | 4 kts | 95° |
| 2026-04-25 01:44 | 33.94063 | -118.38007 | 97 ft | 4 kts | 147° |
| 2026-04-25 01:45 | 33.94033 | -118.37998 | 95 ft | 5 kts | 174° |
| 2026-04-25 01:45 | 33.93997 | -118.38002 | 95 ft | 4 kts | 204° |
| 2026-04-25 01:45 | 33.93984 | -118.38025 | 96 ft | 4 kts | 252° |
| 2026-04-25 01:45 | 33.93982 | -118.38036 | 96 ft | 0 kts | 263° |
| 2026-04-25 01:46 | 33.93982 | -118.38037 | 96 ft | 0 kts | 263° |
| 2026-04-25 01:46 | 33.93933 | -118.38522 | 102 ft | 88 kts | 263° |
| 2026-04-25 01:46 | 33.93833 | -118.39502 | 98 ft | 145 kts | 263° |
| 2026-04-25 01:47 | 33.93697 | -118.40874 | 253 ft | 176 kts | 263° |
| 2026-04-25 01:47 | 33.93555 | -118.42371 | 924 ft | 180 kts | 262° |
| 2026-04-25 01:47 | 33.93388 | -118.43870 | 1758 ft | 183 kts | 263° |
| 2026-04-25 01:47 | 33.93242 | -118.45400 | 2337 ft | 185 kts | 263° |
| 2026-04-25 01:48 | 33.93104 | -118.46949 | 2881 ft | 189 kts | 263° |
| 2026-04-25 01:48 | 33.92964 | -118.48563 | 3320 ft | 197 kts | 263° |
| 2026-04-25 01:48 | 33.92825 | -118.50207 | 3902 ft | 197 kts | 264° |
| 2026-04-25 01:48 | 33.92686 | -118.51883 | 4333 ft | 208 kts | 263° |
| 2026-04-25 01:49 | 33.92534 | -118.53701 | 4547 ft | 228 kts | 264° |
| 2026-04-25 01:49 | 33.92370 | -118.55678 | 4796 ft | 245 kts | 264° |
| 2026-04-25 01:49 | 33.92198 | -118.57743 | 5413 ft | 247 kts | 264° |
| 2026-04-25 01:49 | 33.92028 | -118.59802 | 6105 ft | 253 kts | 264° |
| 2026-04-25 01:50 | 33.91846 | -118.61974 | 6485 ft | 267 kts | 264° |
| 2026-04-25 01:50 | 33.91786 | -118.64206 | 7214 ft | 266 kts | 270° |
| 2026-04-25 01:50 | 33.91784 | -118.66446 | 7863 ft | 270 kts | 266° |
| 2026-04-25 01:50 | 33.91568 | -118.68703 | 8502 ft | 272 kts | 263° |
| 2026-04-25 01:51 | 33.91327 | -118.70970 | 9193 ft | 274 kts | 263° |
| 2026-04-25 01:51 | 33.91095 | -118.73251 | 9878 ft | 276 kts | 263° |
| 2026-04-25 01:51 | 33.90865 | -118.75567 | 10377 ft | 284 kts | 263° |
| 2026-04-25 01:51 | 33.90628 | -118.78009 | 10565 ft | 304 kts | 263° |
| 2026-04-25 01:52 | 33.90376 | -118.80612 | 10796 ft | 320 kts | 263° |
| 2026-04-25 01:52 | 33.90117 | -118.83316 | 11216 ft | 328 kts | 263° |
| 2026-04-25 01:52 | 33.89856 | -118.86033 | 11940 ft | 328 kts | 263° |
| 2026-04-25 01:52 | 33.89595 | -118.88735 | 12606 ft | 330 kts | 263° |
| 2026-04-25 01:53 | 33.89328 | -118.91507 | 13333 ft | 330 kts | 263° |
| 2026-04-25 01:53 | 33.89061 | -118.94265 | 14022 ft | 332 kts | 263° |
| 2026-04-25 01:53 | 33.88794 | -118.97029 | 14651 ft | 334 kts | 263° |
| 2026-04-25 01:53 | 33.88526 | -118.99777 | 15262 ft | 336 kts | 263° |
| 2026-04-25 01:54 | 33.88254 | -119.02573 | 15923 ft | 337 kts | 263° |
| 2026-04-25 01:54 | 33.87980 | -119.05378 | 16535 ft | 339 kts | 263° |
| 2026-04-25 01:54 | 33.87703 | -119.08211 | 17143 ft | 341 kts | 263° |
| 2026-04-25 01:54 | 33.87425 | -119.11052 | 17755 ft | 343 kts | 263° |
| 2026-04-25 01:55 | 33.87143 | -119.13914 | 18329 ft | 345 kts | 263° |
| 2026-04-25 01:55 | 33.86860 | -119.16788 | 18820 ft | 347 kts | 263° |
| 2026-04-25 01:55 | 33.86575 | -119.19679 | 19330 ft | 349 kts | 263° |
| 2026-04-25 01:55 | 33.86287 | -119.22586 | 19837 ft | 351 kts | 263° |
| 2026-04-25 01:56 | 33.85997 | -119.25505 | 20326 ft | 353 kts | 263° |
| 2026-04-25 01:56 | 33.85703 | -119.28456 | 20775 ft | 356 kts | 263° |
| 2026-04-25 01:56 | 33.85408 | -119.31418 | 21245 ft | 358 kts | 263° |
| 2026-04-25 01:56 | 33.85110 | -119.34402 | 21715 ft | 360 kts | 263° |
| 2026-04-25 01:57 | 33.84506 | -119.40417 | 22631 ft | 364 kts | 263° |
| 2026-04-25 01:57 | 33.84200 | -119.43454 | 23078 ft | 367 kts | 263° |
| 2026-04-25 01:57 | 33.83891 | -119.46509 | 23516 ft | 369 kts | 264° |
| 2026-04-25 01:58 | 33.83579 | -119.49591 | 23885 ft | 371 kts | 263° |
| 2026-04-25 01:58 | 33.83265 | -119.52680 | 24258 ft | 373 kts | 263° |
| 2026-04-25 01:58 | 33.82950 | -119.55778 | 24614 ft | 375 kts | 263° |
| 2026-04-25 01:58 | 33.82631 | -119.58905 | 24961 ft | 377 kts | 263° |
| 2026-04-25 01:59 | 33.82309 | -119.62048 | 25335 ft | 379 kts | 263° |
| 2026-04-25 01:59 | 33.81991 | -119.65155 | 25677 ft | 381 kts | 263° |
| 2026-04-25 01:59 | 33.81665 | -119.68321 | 26032 ft | 382 kts | 263° |
| 2026-04-25 01:59 | 33.81337 | -119.71505 | 26375 ft | 384 kts | 263° |
| 2026-04-25 02:00 | 33.81007 | -119.74692 | 26710 ft | 386 kts | 263° |
| 2026-04-25 02:00 | 33.80675 | -119.77907 | 27038 ft | 388 kts | 263° |
| 2026-04-25 02:00 | 33.80340 | -119.81127 | 27394 ft | 389 kts | 263° |
| 2026-04-25 02:00 | 33.80003 | -119.84365 | 27709 ft | 391 kts | 263° |
| 2026-04-25 02:01 | 33.79663 | -119.87615 | 28003 ft | 393 kts | 263° |
| 2026-04-25 02:01 | 33.79321 | -119.90884 | 28319 ft | 395 kts | 263° |
| 2026-04-25 02:01 | 33.78977 | -119.94165 | 28633 ft | 397 kts | 263° |
| 2026-04-25 02:01 | 33.78630 | -119.97463 | 28953 ft | 398 kts | 263° |
| 2026-04-25 02:02 | 33.78280 | -120.00773 | 29260 ft | 400 kts | 262° |
| 2026-04-25 02:02 | 33.77930 | -120.04088 | 29559 ft | 401 kts | 262° |
| 2026-04-25 02:02 | 33.77576 | -120.07426 | 29850 ft | 403 kts | 262° |
| 2026-04-25 02:02 | 33.77219 | -120.10777 | 30147 ft | 404 kts | 262° |
| 2026-04-25 02:03 | 33.76863 | -120.14120 | 30496 ft | 402 kts | 262° |
| 2026-04-25 02:03 | 33.76507 | -120.17448 | 30946 ft | 399 kts | 262° |
| 2026-04-25 02:03 | 33.76153 | -120.20751 | 31356 ft | 396 kts | 262° |
| 2026-04-25 02:03 | 33.75802 | -120.24021 | 31758 ft | 393 kts | 262° |
| 2026-04-25 02:04 | 33.75452 | -120.27270 | 32169 ft | 390 kts | 262° |
| 2026-04-25 02:04 | 33.75109 | -120.30444 | 32580 ft | 387 kts | 261° |
| 2026-04-25 02:04 | 33.74763 | -120.33641 | 32975 ft | 384 kts | 261° |
| 2026-04-25 02:04 | 33.74418 | -120.36815 | 33361 ft | 381 kts | 261° |
| 2026-04-25 02:05 | 33.74076 | -120.39961 | 33743 ft | 378 kts | 261° |
| 2026-04-25 02:05 | 33.73735 | -120.43092 | 33987 ft | 378 kts | 261° |
| 2026-04-25 02:05 | 33.73393 | -120.46221 | 33988 ft | 377 kts | 261° |
| 2026-04-25 02:06 | 33.72712 | -120.52431 | 34002 ft | 375 kts | 261° |
| 2026-04-25 02:06 | 33.72028 | -120.58639 | 34002 ft | 375 kts | 261° |
| 2026-04-25 02:07 | 33.71339 | -120.64856 | 34007 ft | 375 kts | 261° |
| 2026-04-25 02:07 | 33.70648 | -120.71070 | 34007 ft | 375 kts | 261° |
| 2026-04-25 02:08 | 33.69959 | -120.77239 | 34004 ft | 375 kts | 261° |
| 2026-04-25 02:08 | 33.69257 | -120.83485 | 34007 ft | 375 kts | 261° |
| 2026-04-25 02:09 | 33.68561 | -120.89660 | 34004 ft | 375 kts | 261° |
| 2026-04-25 02:09 | 33.67858 | -120.95863 | 34002 ft | 375 kts | 261° |
| 2026-04-25 02:10 | 33.67152 | -121.02059 | 34006 ft | 375 kts | 261° |
| 2026-04-25 02:10 | 33.66443 | -121.08260 | 34009 ft | 375 kts | 261° |
| 2026-04-25 02:11 | 33.65732 | -121.14449 | 34006 ft | 375 kts | 261° |
| 2026-04-25 02:11 | 33.65018 | -121.20640 | 34015 ft | 374 kts | 261° |
| 2026-04-25 02:12 | 33.64300 | -121.26830 | 34018 ft | 375 kts | 260° |
| 2026-04-25 02:12 | 33.63580 | -121.33018 | 34016 ft | 375 kts | 260° |
| 2026-04-25 02:13 | 33.62855 | -121.39216 | 34010 ft | 375 kts | 260° |
| 2026-04-25 02:13 | 33.62129 | -121.45404 | 34018 ft | 375 kts | 260° |
| 2026-04-25 02:14 | 33.61521 | -121.50550 | 34022 ft | 375 kts | 260° |
| 2026-04-25 02:14 | 33.60789 | -121.56733 | 34044 ft | 374 kts | 260° |
| 2026-04-25 02:15 | 33.59926 | -121.63985 | 34030 ft | 380 kts | 260° |
| 2026-04-25 02:15 | 33.59177 | -121.70256 | 34028 ft | 380 kts | 260° |
| 2026-04-25 02:16 | 33.58546 | -121.75515 | 34023 ft | 380 kts | 260° |
| 2026-04-25 02:16 | 33.57790 | -121.81784 | 34023 ft | 380 kts | 260° |
| 2026-04-25 02:17 | 33.57032 | -121.88050 | 34030 ft | 379 kts | 260° |
| 2026-04-25 02:17 | 33.56277 | -121.94262 | 34032 ft | 379 kts | 260° |
| 2026-04-25 02:18 | 33.55512 | -122.00522 | 34026 ft | 379 kts | 260° |
| 2026-04-25 02:18 | 33.54746 | -122.06771 | 34032 ft | 379 kts | 260° |
| 2026-04-25 02:19 | 33.53976 | -122.13025 | 34037 ft | 379 kts | 259° |
| 2026-04-25 02:19 | 33.53203 | -122.19275 | 34039 ft | 379 kts | 259° |
| 2026-04-25 02:20 | 33.52427 | -122.25525 | 34036 ft | 379 kts | 259° |
| 2026-04-25 02:20 | 33.51649 | -122.31766 | 34042 ft | 379 kts | 259° |
| 2026-04-25 02:21 | 33.50867 | -122.38012 | 34043 ft | 380 kts | 259° |
| 2026-04-25 02:21 | 33.50080 | -122.44275 | 34048 ft | 380 kts | 259° |
| 2026-04-25 02:22 | 33.49289 | -122.50536 | 34048 ft | 380 kts | 259° |
| 2026-04-25 02:22 | 33.48496 | -122.56788 | 34046 ft | 380 kts | 259° |
| 2026-04-25 02:23 | 33.47278 | -122.62887 | 34053 ft | 379 kts | 255° |
| 2026-04-25 02:23 | 33.46002 | -122.69002 | 34051 ft | 378 kts | 255° |
| 2026-04-25 02:24 | 33.44741 | -122.75122 | 34050 ft | 378 kts | 255° |
| 2026-04-25 02:24 | 33.43480 | -122.81240 | 34045 ft | 378 kts | 255° |
| 2026-04-25 02:25 | 33.42217 | -122.87355 | 34053 ft | 378 kts | 255° |
| 2026-04-25 02:25 | 33.40951 | -122.93468 | 34053 ft | 379 kts | 255° |
| 2026-04-25 02:26 | 33.39680 | -122.99586 | 34060 ft | 379 kts | 255° |
| 2026-04-25 02:26 | 33.38406 | -123.05703 | 34057 ft | 379 kts | 255° |
| 2026-04-25 02:27 | 33.37139 | -123.11771 | 34055 ft | 378 kts | 255° |
| 2026-04-25 02:27 | 33.35852 | -123.17918 | 34053 ft | 378 kts | 255° |
| 2026-04-25 02:28 | 33.34571 | -123.24023 | 34060 ft | 381 kts | 255° |
| 2026-04-25 02:28 | 33.33277 | -123.30173 | 34068 ft | 384 kts | 255° |
| 2026-04-25 02:29 | 33.31970 | -123.36365 | 34059 ft | 384 kts | 255° |
| 2026-04-25 02:29 | 33.30659 | -123.42562 | 34063 ft | 384 kts | 255° |
| 2026-04-25 02:30 | 33.29348 | -123.48746 | 34066 ft | 384 kts | 255° |
| 2026-04-25 02:30 | 33.28031 | -123.54937 | 34067 ft | 384 kts | 255° |
| 2026-04-25 02:31 | 33.26713 | -123.61113 | 34068 ft | 384 kts | 254° |
| 2026-04-25 02:31 | 33.25391 | -123.67299 | 34067 ft | 384 kts | 254° |
| 2026-04-25 02:32 | 33.24064 | -123.73489 | 34071 ft | 385 kts | 254° |
| 2026-04-25 02:32 | 33.22733 | -123.79683 | 34070 ft | 385 kts | 254° |
| 2026-04-25 02:33 | 33.21398 | -123.85876 | 34070 ft | 385 kts | 254° |
| 2026-04-25 02:33 | 33.20062 | -123.92063 | 34073 ft | 385 kts | 254° |
| 2026-04-25 02:34 | 33.18723 | -123.98244 | 34071 ft | 386 kts | 254° |
| 2026-04-25 02:34 | 33.17373 | -124.04461 | 34073 ft | 386 kts | 254° |
| 2026-04-25 02:35 | 33.16021 | -124.10667 | 34072 ft | 386 kts | 254° |
| 2026-04-25 02:35 | 33.14675 | -124.16834 | 34075 ft | 386 kts | 254° |
| 2026-04-25 02:36 | 33.13317 | -124.23039 | 34078 ft | 387 kts | 254° |
| 2026-04-25 02:36 | 33.11955 | -124.29245 | 34076 ft | 387 kts | 254° |
| 2026-04-25 02:37 | 33.10587 | -124.35466 | 34075 ft | 387 kts | 254° |
| 2026-04-25 02:37 | 33.09220 | -124.41672 | 34075 ft | 387 kts | 253° |
| 2026-04-25 02:38 | 33.07850 | -124.47877 | 34075 ft | 387 kts | 253° |
| 2026-04-25 02:38 | 33.06468 | -124.54080 | 34081 ft | 388 kts | 253° |
| 2026-04-25 02:39 | 33.05078 | -124.60297 | 34080 ft | 388 kts | 253° |
| 2026-04-25 02:39 | 33.03689 | -124.66498 | 34081 ft | 387 kts | 253° |
| 2026-04-25 02:40 | 33.02297 | -124.72698 | 34083 ft | 388 kts | 253° |
| 2026-04-25 02:40 | 33.00906 | -124.78879 | 34089 ft | 390 kts | 253° |
| 2026-04-25 02:41 | 32.99497 | -124.85123 | 34088 ft | 390 kts | 253° |
| 2026-04-25 02:41 | 32.98079 | -124.91394 | 34090 ft | 390 kts | 253° |
| 2026-04-25 02:42 | 32.96673 | -124.97590 | 34090 ft | 390 kts | 253° |
| 2026-04-25 02:42 | 32.95255 | -125.03826 | 34086 ft | 391 kts | 253° |
| 2026-04-25 02:43 | 32.93833 | -125.10067 | 34089 ft | 391 kts | 253° |
| 2026-04-25 02:43 | 32.92406 | -125.16312 | 34089 ft | 391 kts | 253° |
| 2026-04-25 02:44 | 32.90977 | -125.22552 | 34087 ft | 391 kts | 253° |
| 2026-04-25 02:44 | 32.89541 | -125.28801 | 34092 ft | 391 kts | 253° |
| 2026-04-25 02:45 | 32.88105 | -125.35042 | 34095 ft | 391 kts | 252° |
| 2026-04-25 02:45 | 32.86664 | -125.41287 | 34094 ft | 391 kts | 252° |
| 2026-04-25 02:46 | 32.85222 | -125.47518 | 34097 ft | 391 kts | 252° |
| 2026-04-25 02:46 | 32.83773 | -125.53766 | 34099 ft | 392 kts | 252° |
| 2026-04-25 02:47 | 32.82329 | -125.59978 | 34101 ft | 393 kts | 252° |
| 2026-04-25 02:47 | 32.80868 | -125.66245 | 34096 ft | 393 kts | 252° |
| 2026-04-25 02:48 | 32.79407 | -125.72499 | 34095 ft | 393 kts | 252° |
| 2026-04-25 02:48 | 32.77941 | -125.78757 | 34099 ft | 394 kts | 252° |
| 2026-04-25 02:49 | 32.76470 | -125.85023 | 34093 ft | 394 kts | 252° |
| 2026-04-25 02:49 | 32.74994 | -125.91292 | 34101 ft | 394 kts | 252° |
| 2026-04-25 02:50 | 32.73516 | -125.97557 | 34105 ft | 394 kts | 252° |
| 2026-04-25 02:50 | 32.72034 | -126.03825 | 34105 ft | 394 kts | 252° |
| 2026-04-25 02:51 | 32.70560 | -126.10043 | 34101 ft | 394 kts | 252° |
| 2026-04-25 02:51 | 32.69070 | -126.16308 | 34105 ft | 394 kts | 252° |
| 2026-04-25 02:52 | 32.67580 | -126.22564 | 34100 ft | 394 kts | 252° |
| 2026-04-25 02:52 | 32.66087 | -126.28816 | 34108 ft | 394 kts | 252° |
| 2026-04-25 02:53 | 32.64591 | -126.35065 | 34102 ft | 393 kts | 252° |
| 2026-04-25 02:53 | 32.63092 | -126.41310 | 34107 ft | 393 kts | 252° |
| 2026-04-25 02:54 | 32.61592 | -126.47547 | 34106 ft | 393 kts | 252° |
| 2026-04-25 02:54 | 32.60088 | -126.53786 | 34111 ft | 394 kts | 252° |
| 2026-04-25 02:55 | 32.58578 | -126.60033 | 34105 ft | 394 kts | 252° |
| 2026-04-25 02:55 | 32.57076 | -126.66234 | 34107 ft | 394 kts | 252° |
| 2026-04-25 02:56 | 32.55552 | -126.72507 | 34096 ft | 394 kts | 252° |
| 2026-04-25 02:56 | 32.54043 | -126.78705 | 34112 ft | 394 kts | 252° |
| 2026-04-25 02:57 | 32.52517 | -126.84959 | 34106 ft | 395 kts | 252° |
| 2026-04-25 02:57 | 32.50989 | -126.91206 | 34104 ft | 395 kts | 252° |
| 2026-04-25 02:58 | 32.49460 | -126.97445 | 34123 ft | 395 kts | 252° |
| 2026-04-25 02:58 | 32.47924 | -127.03694 | 34111 ft | 395 kts | 252° |
| 2026-04-25 02:59 | 32.46388 | -127.09929 | 34112 ft | 395 kts | 252° |
| 2026-04-25 02:59 | 32.44845 | -127.16180 | 34112 ft | 395 kts | 251° |
| 2026-04-25 03:00 | 32.43302 | -127.22415 | 34110 ft | 395 kts | 251° |
| 2026-04-25 03:00 | 32.41754 | -127.28657 | 34115 ft | 395 kts | 252° |
| 2026-04-25 03:01 | 32.40203 | -127.34897 | 34115 ft | 395 kts | 252° |
| 2026-04-25 03:01 | 32.38647 | -127.41138 | 34114 ft | 395 kts | 252° |
| 2026-04-25 03:02 | 32.37089 | -127.47377 | 34113 ft | 395 kts | 251° |
| 2026-04-25 03:02 | 32.35530 | -127.53604 | 34113 ft | 395 kts | 251° |
| 2026-04-25 03:03 | 32.33968 | -127.59830 | 34114 ft | 395 kts | 251° |
| 2026-04-25 03:03 | 32.32403 | -127.66050 | 34113 ft | 394 kts | 251° |
| 2026-04-25 03:04 | 32.31102 | -127.71216 | 34115 ft | 395 kts | 251° |
| 2026-04-25 03:04 | 32.29535 | -127.77419 | 34116 ft | 393 kts | 251° |
| 2026-04-25 03:05 | 32.27181 | -127.86713 | 34131 ft | 393 kts | 251° |
| 2026-04-25 03:05 | 32.25612 | -127.92889 | 34116 ft | 392 kts | 251° |
| 2026-04-25 03:06 | 32.24038 | -127.99071 | 34116 ft | 393 kts | 251° |
| 2026-04-25 03:06 | 32.22462 | -128.05250 | 34115 ft | 393 kts | 251° |
| 2026-04-25 03:07 | 32.20881 | -128.11431 | 34116 ft | 393 kts | 251° |
| 2026-04-25 03:07 | 32.19308 | -128.17568 | 34116 ft | 393 kts | 251° |
| 2026-04-25 03:08 | 32.17712 | -128.23780 | 34117 ft | 393 kts | 251° |
| 2026-04-25 03:08 | 32.16132 | -128.29919 | 34119 ft | 393 kts | 251° |
| 2026-04-25 03:09 | 32.14536 | -128.36102 | 34116 ft | 393 kts | 251° |
| 2026-04-25 03:09 | 32.12941 | -128.42269 | 34116 ft | 393 kts | 251° |
| 2026-04-25 03:10 | 32.11343 | -128.48435 | 34119 ft | 393 kts | 251° |
| 2026-04-25 03:10 | 32.09743 | -128.54596 | 34119 ft | 393 kts | 251° |
| 2026-04-25 03:11 | 32.08140 | -128.60755 | 34116 ft | 393 kts | 251° |
| 2026-04-25 03:11 | 32.06531 | -128.66919 | 34122 ft | 393 kts | 251° |
| 2026-04-25 03:12 | 32.04925 | -128.73061 | 34115 ft | 392 kts | 250° |
| 2026-04-25 03:12 | 32.03317 | -128.79198 | 34116 ft | 392 kts | 250° |
| 2026-04-25 03:13 | 32.01704 | -128.85339 | 34120 ft | 392 kts | 250° |
| 2026-04-25 03:13 | 32.00102 | -128.91426 | 34132 ft | 391 kts | 250° |
| 2026-04-25 03:14 | 31.98487 | -128.97551 | 34124 ft | 389 kts | 250° |
| 2026-04-25 03:14 | 31.96877 | -129.03639 | 34124 ft | 389 kts | 250° |
| 2026-04-25 03:15 | 31.95276 | -129.09684 | 34121 ft | 389 kts | 250° |
| 2026-04-25 03:15 | 31.93653 | -129.15796 | 34126 ft | 388 kts | 250° |
| 2026-04-25 03:16 | 31.92042 | -129.21851 | 34125 ft | 388 kts | 250° |
| 2026-04-25 03:16 | 31.90426 | -129.27915 | 34124 ft | 388 kts | 250° |
| 2026-04-25 03:17 | 31.88819 | -129.33926 | 34125 ft | 388 kts | 250° |
| 2026-04-25 03:17 | 31.87199 | -129.39977 | 34125 ft | 388 kts | 250° |
| 2026-04-25 03:18 | 31.85573 | -129.46039 | 34127 ft | 388 kts | 250° |
| 2026-04-25 03:18 | 31.83946 | -129.52090 | 34127 ft | 388 kts | 250° |
| 2026-04-25 03:19 | 31.82314 | -129.58146 | 34135 ft | 388 kts | 250° |
| 2026-04-25 03:19 | 31.80679 | -129.64201 | 34124 ft | 388 kts | 250° |
| 2026-04-25 03:20 | 31.79039 | -129.70260 | 34126 ft | 388 kts | 250° |
| 2026-04-25 03:20 | 31.77399 | -129.76307 | 34127 ft | 388 kts | 250° |
| 2026-04-25 03:21 | 31.75756 | -129.82356 | 34138 ft | 389 kts | 250° |
| 2026-04-25 03:21 | 31.74109 | -129.88404 | 34130 ft | 389 kts | 250° |
| 2026-04-25 03:22 | 31.72457 | -129.94456 | 34131 ft | 389 kts | 250° |
| 2026-04-25 03:22 | 31.70804 | -130.00502 | 34130 ft | 389 kts | 250° |
| 2026-04-25 03:23 | 31.69159 | -130.06507 | 34136 ft | 389 kts | 249° |
| 2026-04-25 03:23 | 31.67499 | -130.12551 | 34129 ft | 389 kts | 249° |
| 2026-04-25 03:24 | 31.65835 | -130.18600 | 34128 ft | 389 kts | 249° |
| 2026-04-25 03:24 | 31.64170 | -130.24636 | 34127 ft | 389 kts | 249° |
| 2026-04-25 03:25 | 31.62501 | -130.30677 | 34132 ft | 390 kts | 249° |
| 2026-04-25 03:25 | 31.60828 | -130.36723 | 34130 ft | 389 kts | 249° |
| 2026-04-25 03:26 | 31.59151 | -130.42767 | 34130 ft | 389 kts | 249° |
| 2026-04-25 03:26 | 31.57473 | -130.48802 | 34137 ft | 390 kts | 249° |
| 2026-04-25 03:27 | 31.55787 | -130.54854 | 34135 ft | 391 kts | 249° |
| 2026-04-25 03:27 | 31.54097 | -130.60907 | 34134 ft | 391 kts | 249° |
| 2026-04-25 03:28 | 31.52404 | -130.66963 | 34132 ft | 391 kts | 249° |
| 2026-04-25 03:28 | 31.50717 | -130.72981 | 34127 ft | 391 kts | 249° |
| 2026-04-25 03:29 | 31.49017 | -130.79034 | 34133 ft | 391 kts | 249° |
| 2026-04-25 03:29 | 31.47315 | -130.85080 | 34130 ft | 391 kts | 249° |
| 2026-04-25 03:30 | 31.45611 | -130.91125 | 34128 ft | 391 kts | 249° |
| 2026-04-25 03:30 | 31.43903 | -130.97167 | 34137 ft | 391 kts | 249° |
| 2026-04-25 03:31 | 31.42189 | -131.03223 | 34139 ft | 391 kts | 249° |
| 2026-04-25 03:31 | 31.40474 | -131.09267 | 34133 ft | 391 kts | 249° |
| 2026-04-25 03:32 | 31.38756 | -131.15307 | 34137 ft | 391 kts | 249° |
| 2026-04-25 03:32 | 31.37046 | -131.21311 | 34132 ft | 391 kts | 249° |
| 2026-04-25 03:33 | 31.35324 | -131.27346 | 34139 ft | 391 kts | 249° |
| 2026-04-25 03:33 | 31.33598 | -131.33381 | 34137 ft | 391 kts | 249° |
| 2026-04-25 03:34 | 31.31866 | -131.39422 | 34138 ft | 391 kts | 249° |
| 2026-04-25 03:34 | 31.30135 | -131.45456 | 34128 ft | 391 kts | 249° |
| 2026-04-25 03:35 | 31.28401 | -131.51486 | 34133 ft | 391 kts | 249° |
| 2026-04-25 03:35 | 31.26675 | -131.57481 | 34135 ft | 391 kts | 249° |
| 2026-04-25 03:36 | 31.24920 | -131.63561 | 34128 ft | 392 kts | 249° |
| 2026-04-25 03:36 | 31.23187 | -131.69552 | 34136 ft | 392 kts | 249° |
| 2026-04-25 03:37 | 31.21439 | -131.75587 | 34136 ft | 392 kts | 249° |
| 2026-04-25 03:37 | 31.19688 | -131.81617 | 34140 ft | 393 kts | 249° |
| 2026-04-25 03:38 | 31.17931 | -131.87659 | 34136 ft | 393 kts | 249° |
| 2026-04-25 03:38 | 31.16172 | -131.93695 | 34136 ft | 393 kts | 249° |
| 2026-04-25 03:39 | 31.14409 | -131.99733 | 34129 ft | 393 kts | 249° |
| 2026-04-25 03:39 | 31.12645 | -132.05764 | 34133 ft | 392 kts | 249° |
| 2026-04-25 03:40 | 31.10877 | -132.11794 | 34141 ft | 394 kts | 249° |
| 2026-04-25 03:40 | 31.09082 | -132.17835 | 34136 ft | 394 kts | 249° |
| 2026-04-25 03:41 | 31.07297 | -132.23878 | 34136 ft | 395 kts | 249° |
| 2026-04-25 03:41 | 31.05519 | -132.29894 | 34135 ft | 395 kts | 249° |
| 2026-04-25 03:42 | 31.03727 | -132.35950 | 34135 ft | 395 kts | 249° |
| 2026-04-25 03:42 | 31.01931 | -132.42005 | 34130 ft | 395 kts | 249° |
| 2026-04-25 03:43 | 31.00128 | -132.48074 | 34139 ft | 397 kts | 249° |
| 2026-04-25 03:43 | 30.98317 | -132.54155 | 34138 ft | 397 kts | 249° |
| 2026-04-25 03:44 | 30.96506 | -132.60226 | 34139 ft | 397 kts | 249° |
| 2026-04-25 03:44 | 30.94687 | -132.66312 | 34141 ft | 398 kts | 250° |
| 2026-04-25 03:45 | 30.92863 | -132.72403 | 34140 ft | 398 kts | 250° |
| 2026-04-25 03:45 | 30.91033 | -132.78501 | 34140 ft | 398 kts | 249° |
| 2026-04-25 03:46 | 30.89202 | -132.84589 | 34143 ft | 398 kts | 249° |
| 2026-04-25 03:46 | 30.87380 | -132.90638 | 34144 ft | 399 kts | 249° |
| 2026-04-25 03:47 | 30.85533 | -132.96759 | 34144 ft | 398 kts | 249° |
| 2026-04-25 03:47 | 30.83693 | -133.02844 | 34137 ft | 399 kts | 250° |
| 2026-04-25 03:48 | 30.81850 | -133.08926 | 34140 ft | 399 kts | 250° |
| 2026-04-25 03:48 | 30.80004 | -133.15006 | 34142 ft | 399 kts | 250° |
| 2026-04-25 03:49 | 30.78166 | -133.21051 | 34142 ft | 399 kts | 250° |
| 2026-04-25 03:49 | 30.76313 | -133.27133 | 34145 ft | 399 kts | 251° |
| 2026-04-25 03:50 | 30.74457 | -133.33209 | 34144 ft | 398 kts | 251° |
| 2026-04-25 03:50 | 30.72600 | -133.39281 | 34143 ft | 399 kts | 251° |
| 2026-04-25 03:51 | 30.70741 | -133.45347 | 34143 ft | 397 kts | 251° |
| 2026-04-25 03:51 | 30.68896 | -133.51357 | 34143 ft | 394 kts | 251° |
| 2026-04-25 03:52 | 30.67050 | -133.57357 | 34140 ft | 394 kts | 251° |
| 2026-04-25 03:52 | 30.65201 | -133.63353 | 34146 ft | 394 kts | 252° |
| 2026-04-25 03:53 | 30.63354 | -133.69336 | 34145 ft | 392 kts | 252° |
| 2026-04-25 03:53 | 30.61821 | -133.74293 | 34147 ft | 393 kts | 252° |
| 2026-04-25 03:54 | 30.59674 | -133.81219 | 34146 ft | 393 kts | 252° |
| 2026-04-25 03:54 | 30.57827 | -133.87171 | 34142 ft | 390 kts | 252° |
| 2026-04-25 03:55 | 30.56283 | -133.92131 | 34147 ft | 389 kts | 252° |
| 2026-04-25 03:55 | 30.54441 | -133.98043 | 34170 ft | 390 kts | 252° |
| 2026-04-25 03:56 | 30.52595 | -134.03959 | 34134 ft | 394 kts | 252° |
| 2026-04-25 03:56 | 30.50731 | -134.09921 | 34150 ft | 393 kts | 252° |
| 2026-04-25 03:57 | 30.48866 | -134.15872 | 34141 ft | 392 kts | 252° |
| 2026-04-25 03:57 | 30.47001 | -134.21817 | 34148 ft | 393 kts | 252° |
| 2026-04-25 03:58 | 30.45132 | -134.27760 | 34146 ft | 392 kts | 253° |
| 2026-04-25 03:58 | 30.43259 | -134.33704 | 34146 ft | 392 kts | 253° |
| 2026-04-25 03:59 | 30.41386 | -134.39642 | 34149 ft | 392 kts | 253° |
| 2026-04-25 03:59 | 30.39509 | -134.45577 | 34140 ft | 392 kts | 253° |
| 2026-04-25 04:00 | 30.37630 | -134.51512 | 34149 ft | 392 kts | 253° |
| 2026-04-25 04:00 | 30.35750 | -134.57437 | 34151 ft | 392 kts | 253° |
| 2026-04-25 04:01 | 30.33878 | -134.63326 | 34130 ft | 392 kts | 253° |
| 2026-04-25 04:01 | 30.31994 | -134.69242 | 34146 ft | 391 kts | 253° |
| 2026-04-25 04:02 | 30.30111 | -134.75144 | 34150 ft | 391 kts | 253° |
| 2026-04-25 04:02 | 30.28222 | -134.81054 | 34149 ft | 391 kts | 253° |
| 2026-04-25 04:03 | 30.26333 | -134.86955 | 34149 ft | 391 kts | 253° |
| 2026-04-25 04:03 | 30.24439 | -134.92860 | 34148 ft | 391 kts | 253° |
| 2026-04-25 04:04 | 30.22544 | -134.98758 | 34149 ft | 391 kts | 253° |
| 2026-04-25 04:04 | 30.20647 | -135.04652 | 34150 ft | 392 kts | 253° |
| 2026-04-25 04:05 | 30.18742 | -135.10560 | 34151 ft | 392 kts | 253° |
| 2026-04-25 04:05 | 30.16836 | -135.16461 | 34109 ft | 392 kts | 253° |
| 2026-04-25 04:06 | 30.14947 | -135.22298 | 34150 ft | 391 kts | 253° |
| 2026-04-25 04:06 | 30.13039 | -135.28185 | 34151 ft | 391 kts | 253° |
| 2026-04-25 04:07 | 30.11128 | -135.34069 | 34152 ft | 391 kts | 253° |
| 2026-04-25 04:07 | 30.09217 | -135.39944 | 34157 ft | 392 kts | 253° |
| 2026-04-25 04:08 | 30.07290 | -135.45858 | 34138 ft | 393 kts | 253° |
| 2026-04-25 04:08 | 30.05359 | -135.51772 | 34149 ft | 393 kts | 253° |
| 2026-04-25 04:09 | 30.03430 | -135.57673 | 34153 ft | 393 kts | 252° |
| 2026-04-25 04:09 | 30.01491 | -135.63591 | 34158 ft | 396 kts | 253° |
| 2026-04-25 04:10 | 29.99544 | -135.69524 | 34151 ft | 396 kts | 253° |
| 2026-04-25 04:10 | 29.97604 | -135.75424 | 34151 ft | 396 kts | 253° |
| 2026-04-25 04:11 | 29.94658 | -135.84366 | 34155 ft | 400 kts | 253° |
| 2026-04-25 04:12 | 29.92680 | -135.90358 | 34153 ft | 400 kts | 253° |
| 2026-04-25 04:12 | 29.90698 | -135.96348 | 34141 ft | 400 kts | 253° |
| 2026-04-25 04:13 | 29.88706 | -136.02360 | 34154 ft | 404 kts | 253° |
| 2026-04-25 04:13 | 29.86696 | -136.08417 | 34149 ft | 404 kts | 253° |
| 2026-04-25 04:14 | 29.84683 | -136.14468 | 34157 ft | 404 kts | 252° |
| 2026-04-25 04:14 | 29.82668 | -136.20518 | 34149 ft | 406 kts | 252° |
| 2026-04-25 04:15 | 29.80635 | -136.26609 | 34140 ft | 407 kts | 252° |
| 2026-04-25 04:15 | 29.78614 | -136.32654 | 34155 ft | 407 kts | 252° |
| 2026-04-25 04:16 | 29.76579 | -136.38731 | 34153 ft | 407 kts | 252° |
| 2026-04-25 04:16 | 29.74532 | -136.44832 | 34155 ft | 409 kts | 252° |
| 2026-04-25 04:17 | 29.72479 | -136.50942 | 34157 ft | 409 kts | 252° |
| 2026-04-25 04:17 | 29.70427 | -136.57034 | 34161 ft | 407 kts | 252° |
| 2026-04-25 04:18 | 29.68374 | -136.63123 | 34164 ft | 409 kts | 252° |
| 2026-04-25 04:18 | 29.66314 | -136.69218 | 34157 ft | 409 kts | 252° |
| 2026-04-25 04:19 | 29.64253 | -136.75306 | 34154 ft | 409 kts | 252° |
| 2026-04-25 04:19 | 29.62188 | -136.81399 | 34129 ft | 409 kts | 252° |
| 2026-04-25 04:20 | 29.60137 | -136.87436 | 34154 ft | 408 kts | 252° |
| 2026-04-25 04:20 | 29.58073 | -136.93501 | 34158 ft | 408 kts | 252° |
| 2026-04-25 04:21 | 29.56005 | -136.99570 | 34161 ft | 409 kts | 252° |
| 2026-04-25 04:21 | 29.53922 | -137.05670 | 34162 ft | 411 kts | 252° |
| 2026-04-25 04:22 | 29.51837 | -137.11765 | 34142 ft | 410 kts | 252° |
| 2026-04-25 04:22 | 29.49744 | -137.17874 | 34158 ft | 410 kts | 252° |
| 2026-04-25 04:23 | 29.47646 | -137.23986 | 34156 ft | 412 kts | 252° |
| 2026-04-25 04:23 | 29.45543 | -137.30103 | 34155 ft | 412 kts | 252° |
| 2026-04-25 04:24 | 29.43446 | -137.36190 | 34159 ft | 412 kts | 252° |
| 2026-04-25 04:24 | 29.41333 | -137.42314 | 34158 ft | 414 kts | 252° |
| 2026-04-25 04:25 | 29.39210 | -137.48456 | 34162 ft | 414 kts | 252° |
| 2026-04-25 04:25 | 29.37086 | -137.54589 | 34157 ft | 414 kts | 252° |
| 2026-04-25 04:26 | 29.34957 | -137.60728 | 34153 ft | 414 kts | 252° |
| 2026-04-25 04:26 | 29.32813 | -137.66898 | 34134 ft | 417 kts | 252° |
| 2026-04-25 04:27 | 29.30664 | -137.73072 | 34157 ft | 416 kts | 252° |
| 2026-04-25 04:27 | 29.28530 | -137.79194 | 34157 ft | 416 kts | 252° |
| 2026-04-25 04:28 | 29.26359 | -137.85409 | 34159 ft | 419 kts | 252° |
| 2026-04-25 04:28 | 29.24209 | -137.91555 | 34159 ft | 419 kts | 252° |
| 2026-04-25 04:29 | 29.22039 | -137.97745 | 34138 ft | 419 kts | 252° |
| 2026-04-25 04:29 | 29.19866 | -138.03935 | 34158 ft | 419 kts | 252° |
| 2026-04-25 04:30 | 29.17685 | -138.10138 | 34158 ft | 421 kts | 252° |
| 2026-04-25 04:30 | 29.15497 | -138.16347 | 34160 ft | 420 kts | 252° |
| 2026-04-25 04:31 | 29.13309 | -138.22545 | 34156 ft | 420 kts | 252° |
| 2026-04-25 04:31 | 29.11111 | -138.28762 | 34151 ft | 423 kts | 252° |
| 2026-04-25 04:32 | 29.08906 | -138.34989 | 34154 ft | 422 kts | 252° |
| 2026-04-25 04:32 | 29.06698 | -138.41214 | 34159 ft | 422 kts | 252° |
| 2026-04-25 04:33 | 29.04488 | -138.47432 | 34158 ft | 424 kts | 252° |
| 2026-04-25 04:33 | 29.02265 | -138.53675 | 34159 ft | 424 kts | 252° |
| 2026-04-25 04:34 | 29.00039 | -138.59919 | 34162 ft | 424 kts | 252° |
| 2026-04-25 04:34 | 28.97812 | -138.66154 | 34145 ft | 424 kts | 253° |
| 2026-04-25 04:35 | 28.95577 | -138.72399 | 34162 ft | 426 kts | 253° |
| 2026-04-25 04:35 | 28.93336 | -138.78656 | 34162 ft | 425 kts | 253° |
| 2026-04-25 04:36 | 28.91108 | -138.84862 | 34160 ft | 425 kts | 253° |
| 2026-04-25 04:36 | 28.88859 | -138.91120 | 34162 ft | 428 kts | 253° |
| 2026-04-25 04:37 | 28.86598 | -138.97399 | 34161 ft | 427 kts | 253° |
| 2026-04-25 04:37 | 28.84334 | -139.03677 | 34159 ft | 427 kts | 253° |
| 2026-04-25 04:38 | 28.82070 | -139.09944 | 34148 ft | 428 kts | 253° |
| 2026-04-25 04:38 | 28.79787 | -139.16254 | 34137 ft | 431 kts | 253° |
| 2026-04-25 04:39 | 28.77503 | -139.22553 | 34167 ft | 429 kts | 253° |
| 2026-04-25 04:39 | 28.75224 | -139.28831 | 34165 ft | 429 kts | 253° |
| 2026-04-25 04:40 | 28.72934 | -139.35127 | 34158 ft | 432 kts | 254° |
| 2026-04-25 04:40 | 28.70627 | -139.41457 | 34168 ft | 433 kts | 253° |
| 2026-04-25 04:41 | 28.68295 | -139.47773 | 34140 ft | 433 kts | 253° |
| 2026-04-25 04:41 | 28.65986 | -139.54062 | 34150 ft | 433 kts | 253° |
| 2026-04-25 04:42 | 28.63657 | -139.60395 | 34160 ft | 435 kts | 253° |
| 2026-04-25 04:42 | 28.61319 | -139.66744 | 34160 ft | 435 kts | 253° |
| 2026-04-25 04:43 | 28.58977 | -139.73093 | 34153 ft | 435 kts | 253° |
| 2026-04-25 04:43 | 28.56627 | -139.79451 | 34139 ft | 436 kts | 253° |
| 2026-04-25 04:44 | 28.54268 | -139.85822 | 34161 ft | 438 kts | 253° |
| 2026-04-25 04:44 | 28.51905 | -139.92196 | 34163 ft | 437 kts | 253° |
| 2026-04-25 04:45 | 28.49539 | -139.98566 | 34149 ft | 437 kts | 253° |
| 2026-04-25 04:45 | 28.47170 | -140.04933 | 34162 ft | 437 kts | 253° |
| 2026-04-25 04:46 | 28.45197 | -140.10225 | 34146 ft | 438 kts | 253° |
| 2026-04-25 04:46 | 28.42430 | -140.17637 | 34165 ft | 439 kts | 253° |
| 2026-04-25 04:47 | 28.40045 | -140.24017 | 34167 ft | 438 kts | 253° |
| 2026-04-25 04:47 | 28.37658 | -140.30389 | 34165 ft | 438 kts | 253° |
| 2026-04-25 04:48 | 28.35657 | -140.35721 | 34156 ft | 438 kts | 253° |
| 2026-04-25 04:48 | 28.33265 | -140.42087 | 34142 ft | 439 kts | 253° |
| 2026-04-25 04:49 | 28.30864 | -140.48467 | 34152 ft | 440 kts | 253° |
| 2026-04-25 04:49 | 28.28477 | -140.54798 | 34162 ft | 439 kts | 253° |
| 2026-04-25 04:50 | 28.26072 | -140.61164 | 34164 ft | 439 kts | 253° |
| 2026-04-25 04:50 | 28.23662 | -140.67536 | 34162 ft | 439 kts | 253° |
| 2026-04-25 04:51 | 28.21252 | -140.73894 | 34143 ft | 439 kts | 252° |
| 2026-04-25 04:51 | 28.18830 | -140.80276 | 34163 ft | 441 kts | 252° |
| 2026-04-25 04:52 | 28.16407 | -140.86650 | 34160 ft | 441 kts | 252° |
| 2026-04-25 04:52 | 28.13975 | -140.93034 | 34161 ft | 440 kts | 252° |
| 2026-04-25 04:53 | 28.11543 | -140.99409 | 34159 ft | 441 kts | 252° |
| 2026-04-25 04:53 | 28.09112 | -141.05772 | 34149 ft | 441 kts | 252° |
| 2026-04-25 04:54 | 28.06667 | -141.12159 | 34159 ft | 442 kts | 252° |
| 2026-04-25 04:54 | 28.04222 | -141.18535 | 34163 ft | 442 kts | 252° |
| 2026-04-25 04:55 | 28.01787 | -141.24876 | 34161 ft | 442 kts | 252° |
| 2026-04-25 04:55 | 27.99338 | -141.31245 | 34162 ft | 442 kts | 252° |
| 2026-04-25 04:56 | 27.96882 | -141.37617 | 34146 ft | 442 kts | 251° |
| 2026-04-25 04:56 | 27.94420 | -141.43998 | 34163 ft | 443 kts | 251° |
| 2026-04-25 04:57 | 27.91950 | -141.50387 | 34160 ft | 443 kts | 251° |
| 2026-04-25 04:57 | 27.89484 | -141.56757 | 34158 ft | 443 kts | 251° |
| 2026-04-25 04:58 | 27.87010 | -141.63135 | 34153 ft | 443 kts | 251° |
| 2026-04-25 04:58 | 27.84536 | -141.69502 | 34158 ft | 443 kts | 251° |
| 2026-04-25 04:59 | 27.82059 | -141.75868 | 34156 ft | 443 kts | 251° |
| 2026-04-25 04:59 | 27.79577 | -141.82236 | 34156 ft | 442 kts | 251° |
| 2026-04-25 05:00 | 27.77097 | -141.88589 | 34161 ft | 442 kts | 251° |
| 2026-04-25 05:00 | 27.74617 | -141.94933 | 34169 ft | 442 kts | 251° |
| 2026-04-25 05:01 | 27.72131 | -142.01279 | 34160 ft | 442 kts | 251° |
| 2026-04-25 05:01 | 27.69644 | -142.07619 | 34161 ft | 442 kts | 250° |
| 2026-04-25 05:02 | 27.67156 | -142.13950 | 34160 ft | 441 kts | 250° |
| 2026-04-25 05:02 | 27.64666 | -142.20278 | 34164 ft | 441 kts | 250° |
| 2026-04-25 05:03 | 27.62190 | -142.26557 | 34163 ft | 441 kts | 250° |
| 2026-04-25 05:03 | 27.59678 | -142.32920 | 34162 ft | 441 kts | 250° |
| 2026-04-25 05:04 | 27.57200 | -142.39187 | 34158 ft | 441 kts | 250° |
| 2026-04-25 05:04 | 27.54699 | -142.45500 | 34159 ft | 441 kts | 250° |
| 2026-04-25 05:05 | 27.52196 | -142.51811 | 34162 ft | 441 kts | 250° |
| 2026-04-25 05:06 | 27.47009 | -142.64853 | 34165 ft | 441 kts | 250° |
| 2026-04-25 05:06 | 27.44499 | -142.71150 | 34153 ft | 441 kts | 250° |
| 2026-04-25 05:07 | 27.42409 | -142.76385 | 34162 ft | 441 kts | 250° |